sensor_id;sensor_type;location;lat;lon;timestamp;pressure;altitude;pressure_sealevel;temperature
53667;BMP280;39568;51.026;5.468;2023-03-23T00:02:03;99514.91;;;12.87
53667;BMP280;39568;51.026;5.468;2023-03-23T00:04:30;99519.84;;;12.83
53667;BMP280;39568;51.026;5.468;2023-03-23T00:06:57;99504.94;;;12.88
53667;BMP280;39568;51.026;5.468;2023-03-23T00:09:27;99517.38;;;12.85
53667;BMP280;39568;51.026;5.468;2023-03-23T00:11:55;99502.78;;;12.86
53667;BMP280;39568;51.026;5.468;2023-03-23T00:14:31;99510.59;;;12.84
53667;BMP280;39568;51.026;5.468;2023-03-23T00:17:06;99514.19;;;12.87
53667;BMP280;39568;51.026;5.468;2023-03-23T00:19:35;99512.72;;;12.78
53667;BMP280;39568;51.026;5.468;2023-03-23T00:22:12;99502.75;;;12.79
53667;BMP280;39568;51.026;5.468;2023-03-23T00:24:41;99486.94;;;12.81
53667;BMP280;39568;51.026;5.468;2023-03-23T00:27:08;99503.13;;;12.83
53667;BMP280;39568;51.026;5.468;2023-03-23T00:29:38;99504.22;;;12.87
53667;BMP280;39568;51.026;5.468;2023-03-23T00:32:05;99498.16;;;12.79
53667;BMP280;39568;51.026;5.468;2023-03-23T00:34:31;99487.28;;;12.85
53667;BMP280;39568;51.026;5.468;2023-03-23T00:37:00;99509.94;;;12.91
53667;BMP280;39568;51.026;5.468;2023-03-23T00:39:27;99493.19;;;12.91
53667;BMP280;39568;51.026;5.468;2023-03-23T00:41:55;99503.50;;;12.87
53667;BMP280;39568;51.026;5.468;2023-03-23T00:44:26;99512.03;;;12.85
53667;BMP280;39568;51.026;5.468;2023-03-23T00:46:53;99511.31;;;12.85
53667;BMP280;39568;51.026;5.468;2023-03-23T00:49:22;99512.38;;;12.89
53667;BMP280;39568;51.026;5.468;2023-03-23T00:51:50;99499.41;;;12.86
53667;BMP280;39568;51.026;5.468;2023-03-23T00:54:18;99487.81;;;12.83
53667;BMP280;39568;51.026;5.468;2023-03-23T00:56:46;99490.50;;;12.83
53667;BMP280;39568;51.026;5.468;2023-03-23T00:59:14;99490.13;;;12.79
53667;BMP280;39568;51.026;5.468;2023-03-23T01:01:41;99486.38;;;12.82
53667;BMP280;39568;51.026;5.468;2023-03-23T01:04:08;99507.75;;;12.82
53667;BMP280;39568;51.026;5.468;2023-03-23T01:06:38;99491.72;;;12.82
53667;BMP280;39568;51.026;5.468;2023-03-23T01:09:06;99466.81;;;12.72
53667;BMP280;39568;51.026;5.468;2023-03-23T01:11:33;99437.44;;;12.72
53667;BMP280;39568;51.026;5.468;2023-03-23T01:14:00;99471.75;;;12.68
53667;BMP280;39568;51.026;5.468;2023-03-23T01:16:28;99483.69;;;12.74
53667;BMP280;39568;51.026;5.468;2023-03-23T01:18:55;99465.72;;;12.75
53667;BMP280;39568;51.026;5.468;2023-03-23T01:21:22;99471.25;;;12.77
53667;BMP280;39568;51.026;5.468;2023-03-23T01:23:50;99473.38;;;12.71
53667;BMP280;39568;51.026;5.468;2023-03-23T01:26:19;99463.56;;;12.66
53667;BMP280;39568;51.026;5.468;2023-03-23T01:28:47;99480.31;;;12.74
53667;BMP280;39568;51.026;5.468;2023-03-23T01:31:15;99468.91;;;12.66
53667;BMP280;39568;51.026;5.468;2023-03-23T01:33:44;99447.38;;;12.64
53667;BMP280;39568;51.026;5.468;2023-03-23T01:36:13;99468.50;;;12.62
53667;BMP280;39568;51.026;5.468;2023-03-23T01:38:41;99453.59;;;12.59
53667;BMP280;39568;51.026;5.468;2023-03-23T01:41:08;99481.69;;;12.60
53667;BMP280;39568;51.026;5.468;2023-03-23T01:43:35;99481.31;;;12.56
53667;BMP280;39568;51.026;5.468;2023-03-23T01:46:02;99471.69;;;12.53
53667;BMP280;39568;51.026;5.468;2023-03-23T01:48:32;99473.81;;;12.54
53667;BMP280;39568;51.026;5.468;2023-03-23T01:51:05;99485.88;;;12.48
53667;BMP280;39568;51.026;5.468;2023-03-23T01:53:37;99489.47;;;12.50
53667;BMP280;39568;51.026;5.468;2023-03-23T01:56:06;99460.84;;;12.51
53667;BMP280;39568;51.026;5.468;2023-03-23T01:58:38;99475.03;;;12.46
53667;BMP280;39568;51.026;5.468;2023-03-23T02:01:08;99473.41;;;12.43
53667;BMP280;39568;51.026;5.468;2023-03-23T02:03:37;99453.72;;;12.53
53667;BMP280;39568;51.026;5.468;2023-03-23T02:06:07;99447.28;;;12.49
53667;BMP280;39568;51.026;5.468;2023-03-23T02:08:34;99443.56;;;12.44
53667;BMP280;39568;51.026;5.468;2023-03-23T02:11:08;99430.41;;;12.46
53667;BMP280;39568;51.026;5.468;2023-03-23T02:13:35;99429.72;;;12.53
53667;BMP280;39568;51.026;5.468;2023-03-23T02:16:05;99428.59;;;12.49
53667;BMP280;39568;51.026;5.468;2023-03-23T02:18:50;99433.59;;;12.45
53667;BMP280;39568;51.026;5.468;2023-03-23T02:21:50;99430.41;;;12.46
53667;BMP280;39568;51.026;5.468;2023-03-23T02:24:52;99420.47;;;12.47
53667;BMP280;39568;51.026;5.468;2023-03-23T02:27:40;99432.94;;;12.52
53667;BMP280;39568;51.026;5.468;2023-03-23T02:30:27;99422.91;;;12.45
53667;BMP280;39568;51.026;5.468;2023-03-23T02:33:37;99403.34;;;12.42
53667;BMP280;39568;51.026;5.468;2023-03-23T02:36:10;99405.69;;;12.46
53667;BMP280;39568;51.026;5.468;2023-03-23T02:38:43;99418.84;;;12.44
53667;BMP280;39568;51.026;5.468;2023-03-23T02:41:18;99421.50;;;12.44
53667;BMP280;39568;51.026;5.468;2023-03-23T02:43:46;99417.28;;;12.56
53667;BMP280;39568;51.026;5.468;2023-03-23T02:46:14;99409.78;;;12.54
53667;BMP280;39568;51.026;5.468;2023-03-23T02:48:44;99397.13;;;12.47
53667;BMP280;39568;51.026;5.468;2023-03-23T02:51:13;99402.31;;;12.53
53667;BMP280;39568;51.026;5.468;2023-03-23T02:53:42;99411.59;;;12.52
53667;BMP280;39568;51.026;5.468;2023-03-23T02:56:10;99424.38;;;12.61
53667;BMP280;39568;51.026;5.468;2023-03-23T02:58:38;99431.84;;;12.55
53667;BMP280;39568;51.026;5.468;2023-03-23T03:04:03;99428.38;;;12.67
53667;BMP280;39568;51.026;5.468;2023-03-23T03:06:37;99431.16;;;12.62
53667;BMP280;39568;51.026;5.468;2023-03-23T03:09:13;99416.25;;;12.66
53667;BMP280;39568;51.026;5.468;2023-03-23T03:11:47;99431.56;;;12.66
53667;BMP280;39568;51.026;5.468;2023-03-23T03:14:19;99426.22;;;12.66
53667;BMP280;39568;51.026;5.468;2023-03-23T03:16:52;99434.03;;;12.64
53667;BMP280;39568;51.026;5.468;2023-03-23T03:19:25;99418.72;;;12.64
53667;BMP280;39568;51.026;5.468;2023-03-23T03:21:54;99426.97;;;12.74
53667;BMP280;39568;51.026;5.468;2023-03-23T03:24:24;99410.78;;;12.80
53667;BMP280;39568;51.026;5.468;2023-03-23T03:26:54;99421.44;;;12.72
53667;BMP280;39568;51.026;5.468;2023-03-23T03:29:26;99413.06;;;12.76
53667;BMP280;39568;51.026;5.468;2023-03-23T03:31:56;99414.16;;;12.80
53667;BMP280;39568;51.026;5.468;2023-03-23T03:34:25;99419.09;;;12.76
53667;BMP280;39568;51.026;5.468;2023-03-23T03:36:54;99426.97;;;12.89
53667;BMP280;39568;51.026;5.468;2023-03-23T03:39:24;99426.94;;;12.66
53667;BMP280;39568;51.026;5.468;2023-03-23T03:41:50;99425.19;;;12.84
53667;BMP280;39568;51.026;5.468;2023-03-23T03:44:17;99434.97;;;12.74
53667;BMP280;39568;51.026;5.468;2023-03-23T03:46:44;99420.22;;;12.81
53667;BMP280;39568;51.026;5.468;2023-03-23T03:49:11;99428.53;;;12.77
53667;BMP280;39568;51.026;5.468;2023-03-23T03:51:40;99424.50;;;12.84
53667;BMP280;39568;51.026;5.468;2023-03-23T03:54:07;99415.44;;;12.87
53667;BMP280;39568;51.026;5.468;2023-03-23T03:56:33;99425.53;;;12.81
53667;BMP280;39568;51.026;5.468;2023-03-23T03:59:01;99424.31;;;12.89
53667;BMP280;39568;51.026;5.468;2023-03-23T04:01:28;99430.19;;;12.88
53667;BMP280;39568;51.026;5.468;2023-03-23T04:03:55;99422.19;;;12.88
53667;BMP280;39568;51.026;5.468;2023-03-23T04:06:22;99429.63;;;12.74
53667;BMP280;39568;51.026;5.468;2023-03-23T04:08:50;99431.97;;;12.85
53667;BMP280;39568;51.026;5.468;2023-03-23T04:11:17;99436.75;;;12.79
53667;BMP280;39568;51.026;5.468;2023-03-23T04:13:44;99444.22;;;12.81
53667;BMP280;39568;51.026;5.468;2023-03-23T04:16:10;99433.72;;;12.83
53667;BMP280;39568;51.026;5.468;2023-03-23T04:18:37;99430.53;;;12.84
53667;BMP280;39568;51.026;5.468;2023-03-23T04:21:04;99449.41;;;12.86
53667;BMP280;39568;51.026;5.468;2023-03-23T04:23:33;99437.63;;;12.82
53667;BMP280;39568;51.026;5.468;2023-03-23T04:26:03;99440.84;;;12.80
53667;BMP280;39568;51.026;5.468;2023-03-23T04:28:30;99442.25;;;12.81
53667;BMP280;39568;51.026;5.468;2023-03-23T04:30:59;99440.16;;;12.80
53667;BMP280;39568;51.026;5.468;2023-03-23T04:33:27;99442.25;;;12.81
53667;BMP280;39568;51.026;5.468;2023-03-23T04:35:58;99446.19;;;12.88
53667;BMP280;39568;51.026;5.468;2023-03-23T04:38:27;99444.03;;;12.79
53667;BMP280;39568;51.026;5.468;2023-03-23T04:40:55;99455.59;;;12.73
53667;BMP280;39568;51.026;5.468;2023-03-23T04:43:23;99452.94;;;12.73
53667;BMP280;39568;51.026;5.468;2023-03-23T04:45:52;99452.22;;;12.73
53667;BMP280;39568;51.026;5.468;2023-03-23T04:48:21;99450.44;;;12.76
53667;BMP280;39568;51.026;5.468;2023-03-23T04:50:48;99461.47;;;12.72
53667;BMP280;39568;51.026;5.468;2023-03-23T04:53:16;99455.03;;;12.60
53667;BMP280;39568;51.026;5.468;2023-03-23T04:55:44;99460.38;;;12.67
53667;BMP280;39568;51.026;5.468;2023-03-23T04:58:11;99458.81;;;12.72
53667;BMP280;39568;51.026;5.468;2023-03-23T05:00:41;99459.66;;;12.74
53667;BMP280;39568;51.026;5.468;2023-03-23T05:03:09;99464.06;;;12.64
53667;BMP280;39568;51.026;5.468;2023-03-23T05:05:35;99468.91;;;12.66
53667;BMP280;39568;51.026;5.468;2023-03-23T05:08:03;99458.81;;;12.72
53667;BMP280;39568;51.026;5.468;2023-03-23T05:10:30;99463.22;;;12.69
53667;BMP280;39568;51.026;5.468;2023-03-23T05:12:57;99457.88;;;12.69
53667;BMP280;39568;51.026;5.468;2023-03-23T05:15:24;99450.03;;;12.64
53667;BMP280;39568;51.026;5.468;2023-03-23T05:17:52;99457.00;;;12.67
53667;BMP280;39568;51.026;5.468;2023-03-23T05:20:21;99457.84;;;12.62
53667;BMP280;39568;51.026;5.468;2023-03-23T05:22:48;99463.19;;;12.62
53667;BMP280;39568;51.026;5.468;2023-03-23T05:25:16;99472.81;;;12.65
53667;BMP280;39568;51.026;5.468;2023-03-23T05:27:45;99487.03;;;12.60
53667;BMP280;39568;51.026;5.468;2023-03-23T05:30:14;99477.75;;;12.61
53667;BMP280;39568;51.026;5.468;2023-03-23T05:32:42;99483.81;;;12.61
53667;BMP280;39568;51.026;5.468;2023-03-23T05:35:12;99469.94;;;12.63
53667;BMP280;39568;51.026;5.468;2023-03-23T05:37:38;99490.75;;;12.64
53667;BMP280;39568;51.026;5.468;2023-03-23T05:40:06;99512.81;;;12.65
53667;BMP280;39568;51.026;5.468;2023-03-23T05:42:34;99484.69;;;12.56
53667;BMP280;39568;51.026;5.468;2023-03-23T05:45:01;99471.94;;;12.70
53667;BMP280;39568;51.026;5.468;2023-03-23T05:47:28;99470.69;;;12.63
53667;BMP280;39568;51.026;5.468;2023-03-23T05:49:55;99489.72;;;12.60
53667;BMP280;39568;51.026;5.468;2023-03-23T05:52:24;99507.81;;;12.54
53667;BMP280;39568;51.026;5.468;2023-03-23T05:54:51;99476.38;;;12.60
53667;BMP280;39568;51.026;5.468;2023-03-23T05:57:18;99488.41;;;12.61
53667;BMP280;39568;51.026;5.468;2023-03-23T05:59:47;99457.97;;;12.49
53667;BMP280;39568;51.026;5.468;2023-03-23T06:02:14;99479.16;;;12.54
53667;BMP280;39568;51.026;5.468;2023-03-23T06:04:41;99487.31;;;12.49
53667;BMP280;39568;51.026;5.468;2023-03-23T06:07:08;99468.25;;;12.45
53667;BMP280;39568;51.026;5.468;2023-03-23T06:09:39;99473.75;;;12.39
53667;BMP280;39568;51.026;5.468;2023-03-23T06:12:06;99468.59;;;12.41
53667;BMP280;39568;51.026;5.468;2023-03-23T06:14:33;99474.63;;;12.42
53667;BMP280;39568;51.026;5.468;2023-03-23T06:17:00;99490.50;;;12.47
53667;BMP280;39568;51.026;5.468;2023-03-23T06:19:27;99498.50;;;12.47
53667;BMP280;39568;51.026;5.468;2023-03-23T06:21:54;99501.00;;;12.45
53667;BMP280;39568;51.026;5.468;2023-03-23T06:24:21;99500.47;;;12.47
53667;BMP280;39568;51.026;5.468;2023-03-23T06:26:49;99500.13;;;12.50
53667;BMP280;39568;51.026;5.468;2023-03-23T06:29:16;99510.28;;;12.52
53667;BMP280;39568;51.026;5.468;2023-03-23T06:31:45;99509.56;;;12.51
53667;BMP280;39568;51.026;5.468;2023-03-23T06:34:13;99543.31;;;12.49
53667;BMP280;39568;51.026;5.468;2023-03-23T06:36:40;99528.97;;;12.52
53667;BMP280;39568;51.026;5.468;2023-03-23T06:39:08;99535.19;;;12.54
53667;BMP280;39568;51.026;5.468;2023-03-23T06:41:36;99530.09;;;12.64
53667;BMP280;39568;51.026;5.468;2023-03-23T06:44:05;99538.38;;;12.53
53667;BMP280;39568;51.026;5.468;2023-03-23T06:46:32;99528.06;;;12.57
53667;BMP280;39568;51.026;5.468;2023-03-23T06:48:58;99524.50;;;12.47
53667;BMP280;39568;51.026;5.468;2023-03-23T06:51:25;99561.34;;;12.56
53667;BMP280;39568;51.026;5.468;2023-03-23T06:53:52;99525.09;;;12.60
53667;BMP280;39568;51.026;5.468;2023-03-23T06:56:18;99512.75;;;12.50
53667;BMP280;39568;51.026;5.468;2023-03-23T06:58:45;99509.03;;;12.53
53667;BMP280;39568;51.026;5.468;2023-03-23T07:01:14;99517.22;;;12.55
53667;BMP280;39568;51.026;5.468;2023-03-23T07:03:41;99525.22;;;12.55
53667;BMP280;39568;51.026;5.468;2023-03-23T07:06:09;99525.63;;;12.59
53667;BMP280;39568;51.026;5.468;2023-03-23T07:08:36;99524.00;;;12.56
53667;BMP280;39568;51.026;5.468;2023-03-23T07:11:03;99515.50;;;12.65
53667;BMP280;39568;51.026;5.468;2023-03-23T07:13:30;99516.56;;;12.69
53667;BMP280;39568;51.026;5.468;2023-03-23T07:15:57;99530.41;;;12.60
53667;BMP280;39568;51.026;5.468;2023-03-23T07:18:27;99511.09;;;12.75
53667;BMP280;39568;51.026;5.468;2023-03-23T07:20:53;99521.28;;;12.84
53667;BMP280;39568;51.026;5.468;2023-03-23T07:23:20;99520.25;;;12.95
53667;BMP280;39568;51.026;5.468;2023-03-23T07:25:47;99517.94;;;12.91
53667;BMP280;39568;51.026;5.468;2023-03-23T07:28:14;99530.91;;;12.87
53667;BMP280;39568;51.026;5.468;2023-03-23T07:30:41;99513.44;;;12.79
53667;BMP280;39568;51.026;5.468;2023-03-23T07:33:09;99519.31;;;12.85
53667;BMP280;39568;51.026;5.468;2023-03-23T07:35:37;99524.84;;;12.79
53667;BMP280;39568;51.026;5.468;2023-03-23T07:38:05;99536.78;;;12.86
53667;BMP280;39568;51.026;5.468;2023-03-23T07:40:32;99535.91;;;12.91
53667;BMP280;39568;51.026;5.468;2023-03-23T07:43:00;99529.53;;;13.09
53667;BMP280;39568;51.026;5.468;2023-03-23T07:45:27;99529.16;;;12.97
53667;BMP280;39568;51.026;5.468;2023-03-23T07:47:54;99541.25;;;12.91
53667;BMP280;39568;51.026;5.468;2023-03-23T07:50:21;99519.19;;;12.98
53667;BMP280;39568;51.026;5.468;2023-03-23T07:52:51;99536.13;;;13.00
53667;BMP280;39568;51.026;5.468;2023-03-23T07:55:20;99525.63;;;13.02
53667;BMP280;39568;51.026;5.468;2023-03-23T07:57:47;99549.47;;;13.08
53667;BMP280;39568;51.026;5.468;2023-03-23T08:00:15;99547.88;;;13.05
53667;BMP280;39568;51.026;5.468;2023-03-23T08:02:44;99544.84;;;13.08
53667;BMP280;39568;51.026;5.468;2023-03-23T08:05:11;99537.72;;;13.03
53667;BMP280;39568;51.026;5.468;2023-03-23T08:07:39;99563.50;;;12.93
53667;BMP280;39568;51.026;5.468;2023-03-23T08:10:09;99548.28;;;12.73
53667;BMP280;39568;51.026;5.468;2023-03-23T08:12:37;99559.28;;;12.69
53667;BMP280;39568;51.026;5.468;2023-03-23T08:15:05;99584.16;;;12.64
53667;BMP280;39568;51.026;5.468;2023-03-23T08:17:33;99560.25;;;12.51
53667;BMP280;39568;51.026;5.468;2023-03-23T08:20:01;99575.50;;;12.43
53667;BMP280;39568;51.026;5.468;2023-03-23T08:22:33;99587.91;;;12.41
53667;BMP280;39568;51.026;5.468;2023-03-23T08:25:01;99604.63;;;12.41
53667;BMP280;39568;51.026;5.468;2023-03-23T08:27:30;99622.38;;;11.43
53667;BMP280;39568;51.026;5.468;2023-03-23T08:29:57;99613.97;;;10.29
53667;BMP280;39568;51.026;5.468;2023-03-23T08:32:24;99606.91;;;9.81
53667;BMP280;39568;51.026;5.468;2023-03-23T08:34:51;99621.91;;;9.59
53667;BMP280;39568;51.026;5.468;2023-03-23T08:37:17;99614.66;;;9.41
53667;BMP280;39568;51.026;5.468;2023-03-23T08:39:44;99608.69;;;9.35
53667;BMP280;39568;51.026;5.468;2023-03-23T08:42:11;99625.47;;;9.43
53667;BMP280;39568;51.026;5.468;2023-03-23T08:44:40;99627.72;;;9.39
53667;BMP280;39568;51.026;5.468;2023-03-23T08:47:07;99621.16;;;9.40
53667;BMP280;39568;51.026;5.468;2023-03-23T08:49:34;99621.84;;;9.46
53667;BMP280;39568;51.026;5.468;2023-03-23T08:52:02;99641.63;;;9.45
53667;BMP280;39568;51.026;5.468;2023-03-23T08:54:29;99633.44;;;9.43
53667;BMP280;39568;51.026;5.468;2023-03-23T08:56:59;99633.66;;;9.45
53667;BMP280;39568;51.026;5.468;2023-03-23T08:59:27;99644.13;;;9.38
53667;BMP280;39568;51.026;5.468;2023-03-23T09:01:55;99642.47;;;9.35
53667;BMP280;39568;51.026;5.468;2023-03-23T09:04:22;99647.34;;;9.31
53667;BMP280;39568;51.026;5.468;2023-03-23T09:06:48;99641.75;;;9.34
53667;BMP280;39568;51.026;5.468;2023-03-23T09:09:15;99650.22;;;9.33
53667;BMP280;39568;51.026;5.468;2023-03-23T09:11:42;99650.22;;;9.33
53667;BMP280;39568;51.026;5.468;2023-03-23T09:14:10;99642.66;;;9.42
53667;BMP280;39568;51.026;5.468;2023-03-23T09:16:37;99648.50;;;9.35
53667;BMP280;39568;51.026;5.468;2023-03-23T09:19:06;99657.63;;;9.40
53667;BMP280;39568;51.026;5.468;2023-03-23T09:21:34;99644.44;;;9.29
53667;BMP280;39568;51.026;5.468;2023-03-23T09:24:02;99635.44;;;9.37
53667;BMP280;39568;51.026;5.468;2023-03-23T09:26:30;99630.59;;;9.41
53667;BMP280;39568;51.026;5.468;2023-03-23T09:28:57;99633.66;;;9.45
53667;BMP280;39568;51.026;5.468;2023-03-23T09:31:24;99642.50;;;9.53
53667;BMP280;39568;51.026;5.468;2023-03-23T09:33:51;99629.38;;;9.61
53667;BMP280;39568;51.026;5.468;2023-03-23T09:36:21;99638.06;;;9.80
53667;BMP280;39568;51.026;5.468;2023-03-23T09:38:48;99637.72;;;9.89
53667;BMP280;39568;51.026;5.468;2023-03-23T09:41:25;99647.41;;;10.05
53667;BMP280;39568;51.026;5.468;2023-03-23T09:44:01;99651.56;;;10.19
53667;BMP280;39568;51.026;5.468;2023-03-23T09:46:39;99648.59;;;10.23
53667;BMP280;39568;51.026;5.468;2023-03-23T09:49:11;99658.38;;;10.34
53667;BMP280;39568;51.026;5.468;2023-03-23T09:51:43;99664.91;;;10.33
53667;BMP280;39568;51.026;5.468;2023-03-23T09:54:14;99665.34;;;10.37
53667;BMP280;39568;51.026;5.468;2023-03-23T09:56:44;99667.03;;;10.34
53667;BMP280;39568;51.026;5.468;2023-03-23T09:59:16;99679.72;;;10.28
53667;BMP280;39568;51.026;5.468;2023-03-23T10:01:47;99666.78;;;10.19
53667;BMP280;39568;51.026;5.468;2023-03-23T10:04:22;99661.72;;;10.21
53667;BMP280;39568;51.026;5.468;2023-03-23T10:06:52;99673.72;;;10.22
53667;BMP280;39568;51.026;5.468;2023-03-23T10:09:19;99670.53;;;10.29
53667;BMP280;39568;51.026;5.468;2023-03-23T10:11:54;99656.03;;;10.43
53667;BMP280;39568;51.026;5.468;2023-03-23T10:14:30;99661.91;;;10.55
53667;BMP280;39568;51.026;5.468;2023-03-23T10:17:13;99678.41;;;10.66
53667;BMP280;39568;51.026;5.468;2023-03-23T10:19:46;99672.97;;;10.59
53667;BMP280;39568;51.026;5.468;2023-03-23T10:22:20;99672.25;;;10.58
53667;BMP280;39568;51.026;5.468;2023-03-23T10:24:51;99691.28;;;10.62
53667;BMP280;39568;51.026;5.468;2023-03-23T10:27:26;99686.91;;;10.65
53667;BMP280;39568;51.026;5.468;2023-03-23T10:29:57;99690.06;;;10.63
53667;BMP280;39568;51.026;5.468;2023-03-23T10:32:39;99678.53;;;10.61
53667;BMP280;39568;51.026;5.468;2023-03-23T10:35:11;99686.41;;;10.79
53667;BMP280;39568;51.026;5.468;2023-03-23T10:37:46;99691.44;;;10.83
53667;BMP280;39568;51.026;5.468;2023-03-23T10:40:15;99683.78;;;10.93
53667;BMP280;39568;51.026;5.468;2023-03-23T10:42:43;99680.91;;;10.91
53667;BMP280;39568;51.026;5.468;2023-03-23T10:45:15;99693.00;;;11.18
53667;BMP280;39568;51.026;5.468;2023-03-23T10:47:46;99665.59;;;11.23
53667;BMP280;39568;51.026;5.468;2023-03-23T10:50:16;99665.56;;;11.49
53667;BMP280;39568;51.026;5.468;2023-03-23T10:52:45;99664.22;;;11.69
53667;BMP280;39568;51.026;5.468;2023-03-23T10:55:14;99661.13;;;12.12
53667;BMP280;39568;51.026;5.468;2023-03-23T10:57:43;99668.97;;;12.38
53667;BMP280;39568;51.026;5.468;2023-03-23T11:00:18;99677.41;;;12.49
53667;BMP280;39568;51.026;5.468;2023-03-23T11:02:48;99687.81;;;12.32
53667;BMP280;39568;51.026;5.468;2023-03-23T11:05:25;99701.41;;;12.08
53667;BMP280;39568;51.026;5.468;2023-03-23T11:07:56;99696.53;;;12.20
53667;BMP280;39568;51.026;5.468;2023-03-23T11:10:24;99698.50;;;11.85
53667;BMP280;39568;51.026;5.468;2023-03-23T11:12:52;99698.91;;;11.89
53667;BMP280;39568;51.026;5.468;2023-03-23T11:15:29;99685.97;;;11.93
53667;BMP280;39568;51.026;5.468;2023-03-23T11:18:00;99698.19;;;11.89
53667;BMP280;39568;51.026;5.468;2023-03-23T11:20:29;99690.59;;;12.14
53667;BMP280;39568;51.026;5.468;2023-03-23T11:22:58;99675.53;;;11.82
53667;BMP280;39568;51.026;5.468;2023-03-23T11:25:25;99700.69;;;12.07
53667;BMP280;39568;51.026;5.468;2023-03-23T11:27:52;99675.25;;;12.06
53667;BMP280;39568;51.026;5.468;2023-03-23T11:30:23;99673.94;;;12.00
53667;BMP280;39568;51.026;5.468;2023-03-23T11:32:50;99671.31;;;12.21
53667;BMP280;39568;51.026;5.468;2023-03-23T11:35:21;99678.28;;;12.24
53667;BMP280;39568;51.026;5.468;2023-03-23T11:37:51;99674.81;;;12.16
53667;BMP280;39568;51.026;5.468;2023-03-23T11:40:22;99684.31;;;12.03
53667;BMP280;39568;51.026;5.468;2023-03-23T11:42:57;99686.41;;;11.84
53667;BMP280;39568;51.026;5.468;2023-03-23T11:45:31;99678.59;;;11.86
53667;BMP280;39568;51.026;5.468;2023-03-23T11:48:06;99673.06;;;12.18
53667;BMP280;39568;51.026;5.468;2023-03-23T11:50:46;99685.53;;;12.85
53667;BMP280;39568;51.026;5.468;2023-03-23T11:53:22;99675.22;;;13.17
53667;BMP280;39568;51.026;5.468;2023-03-23T11:55:58;99684.00;;;13.69
53667;BMP280;39568;51.026;5.468;2023-03-23T11:58:27;99678.78;;;13.20
53667;BMP280;39568;51.026;5.468;2023-03-23T12:01:00;99676.50;;;12.96
53667;BMP280;39568;51.026;5.468;2023-03-23T12:03:51;99667.53;;;13.06
53667;BMP280;39568;51.026;5.468;2023-03-23T12:06:27;99668.75;;;13.49
53667;BMP280;39568;51.026;5.468;2023-03-23T12:09:05;99661.78;;;14.04
53667;BMP280;39568;51.026;5.468;2023-03-23T12:11:40;99665.63;;;13.73
53667;BMP280;39568;51.026;5.468;2023-03-23T12:14:16;99657.84;;;14.05
53667;BMP280;39568;51.026;5.468;2023-03-23T12:16:59;99662.13;;;14.53
53667;BMP280;39568;51.026;5.468;2023-03-23T12:19:34;99648.94;;;14.40
53667;BMP280;39568;51.026;5.468;2023-03-23T12:22:12;99656.97;;;14.40
53667;BMP280;39568;51.026;5.468;2023-03-23T12:24:53;99661.00;;;13.66
53667;BMP280;39568;51.026;5.468;2023-03-23T12:27:27;99659.81;;;14.04
53667;BMP280;39568;51.026;5.468;2023-03-23T12:30:05;99654.28;;;13.95
53667;BMP280;39568;51.026;5.468;2023-03-23T12:32:59;99661.53;;;13.72
53667;BMP280;39568;51.026;5.468;2023-03-23T12:35:34;99675.50;;;14.08
53667;BMP280;39568;51.026;5.468;2023-03-23T12:38:16;99649.50;;;14.24
53667;BMP280;39568;51.026;5.468;2023-03-23T12:41:07;99662.88;;;14.01
53667;BMP280;39568;51.026;5.468;2023-03-23T12:43:39;99659.25;;;13.98
53667;BMP280;39568;51.026;5.468;2023-03-23T12:46:36;99648.75;;;13.93
53667;BMP280;39568;51.026;5.468;2023-03-23T12:49:07;99652.16;;;14.16
53667;BMP280;39568;51.026;5.468;2023-03-23T12:51:40;99648.91;;;14.02
53667;BMP280;39568;51.026;5.468;2023-03-23T12:54:12;99646.75;;;13.86
53667;BMP280;39568;51.026;5.468;2023-03-23T12:56:48;99648.13;;;13.57
53667;BMP280;39568;51.026;5.468;2023-03-23T12:59:23;99651.88;;;13.61
53667;BMP280;39568;51.026;5.468;2023-03-23T13:01:54;99641.72;;;13.52
53667;BMP280;39568;51.026;5.468;2023-03-23T13:04:26;99645.84;;;13.68
53667;BMP280;39568;51.026;5.468;2023-03-23T13:06:54;99646.44;;;14.04
53667;BMP280;39568;51.026;5.468;2023-03-23T13:09:26;99662.00;;;14.36
53667;BMP280;39568;51.026;5.468;2023-03-23T13:11:55;99658.19;;;16.13
53667;BMP280;39568;51.026;5.468;2023-03-23T13:14:34;99650.50;;;16.86
53667;BMP280;39568;51.026;5.468;2023-03-23T13:17:13;99660.91;;;16.31
53667;BMP280;39568;51.026;5.468;2023-03-23T13:20:04;99669.22;;;15.36
53667;BMP280;39568;51.026;5.468;2023-03-23T13:22:42;99673.53;;;14.76
53667;BMP280;39568;51.026;5.468;2023-03-23T13:25:18;99671.06;;;14.63
53667;BMP280;39568;51.026;5.468;2023-03-23T13:27:56;99680.53;;;14.42
53667;BMP280;39568;51.026;5.468;2023-03-23T13:30:25;99663.56;;;14.54
53667;BMP280;39568;51.026;5.468;2023-03-23T13:33:02;99661.06;;;14.49
53667;BMP280;39568;51.026;5.468;2023-03-23T13:35:34;99673.38;;;14.37
53667;BMP280;39568;51.026;5.468;2023-03-23T13:38:12;99666.22;;;14.09
53667;BMP280;39568;51.026;5.468;2023-03-23T13:40:42;99666.53;;;13.75
53667;BMP280;39568;51.026;5.468;2023-03-23T13:43:09;99679.25;;;13.47
53667;BMP280;39568;51.026;5.468;2023-03-23T13:45:45;99670.94;;;13.14
53667;BMP280;39568;51.026;5.468;2023-03-23T13:48:21;99680.47;;;13.02
53667;BMP280;39568;51.026;5.468;2023-03-23T13:50:54;99681.38;;;13.05
53667;BMP280;39568;51.026;5.468;2023-03-23T13:53:26;99667.66;;;13.01
53667;BMP280;39568;51.026;5.468;2023-03-23T13:56:07;99672.28;;;13.00
53667;BMP280;39568;51.026;5.468;2023-03-23T13:58:45;99670.09;;;12.91
53667;BMP280;39568;51.026;5.468;2023-03-23T14:01:16;99677.44;;;12.98
53667;BMP280;39568;51.026;5.468;2023-03-23T14:03:46;99658.03;;;14.22
53667;BMP280;39568;51.026;5.468;2023-03-23T14:06:17;99672.69;;;15.21
53667;BMP280;39568;51.026;5.468;2023-03-23T14:08:48;99691.13;;;15.02
53667;BMP280;39568;51.026;5.468;2023-03-23T14:11:19;99640.31;;;15.59
53667;BMP280;39568;51.026;5.468;2023-03-23T14:13:57;99645.34;;;16.63
53667;BMP280;39568;51.026;5.468;2023-03-23T14:16:31;99635.78;;;16.18
53667;BMP280;39568;51.026;5.468;2023-03-23T14:19:00;99635.19;;;16.45
53667;BMP280;39568;51.026;5.468;2023-03-23T14:21:33;99611.75;;;16.62
53667;BMP280;39568;51.026;5.468;2023-03-23T14:24:05;99626.59;;;17.34
53667;BMP280;39568;51.026;5.468;2023-03-23T14:26:34;99622.25;;;17.12
53667;BMP280;39568;51.026;5.468;2023-03-23T14:29:03;99635.69;;;17.84
53667;BMP280;39568;51.026;5.468;2023-03-23T14:31:32;99599.09;;;16.99